createdAt,value
2023-03-19T00:00:32.004Z,24.70
2023-03-19T00:02:59.211Z,24.40
2023-03-19T00:05:27.065Z,23.00
2023-03-19T00:07:54.027Z,27.70
2023-03-19T00:10:21.626Z,25.57
2023-03-19T00:12:48.526Z,24.03
2023-03-19T00:15:16.211Z,28.73
2023-03-19T00:17:43.900Z,29.87
2023-03-19T00:20:15.147Z,26.80
2023-03-19T00:22:42.528Z,27.23
2023-03-19T00:25:10.330Z,29.00
2023-03-19T00:27:38.506Z,25.27
2023-03-19T00:30:08.326Z,23.07
2023-03-19T00:32:37.030Z,24.17
2023-03-19T00:35:09.387Z,25.70
2023-03-19T00:37:37.743Z,21.03
2023-03-19T00:40:06.872Z,28.47
2023-03-19T00:42:34.873Z,22.37
2023-03-19T00:45:02.041Z,25.13
2023-03-19T00:47:29.003Z,21.90
2023-03-19T00:49:56.669Z,21.03
2023-03-19T00:52:23.653Z,22.27
2023-03-19T00:54:50.652Z,23.20
2023-03-19T00:57:17.577Z,25.63
2023-03-19T00:59:44.484Z,23.13
2023-03-19T01:02:11.484Z,27.47
2023-03-19T01:04:38.553Z,25.20
2023-03-19T01:07:05.990Z,24.83
2023-03-19T01:09:33.097Z,23.33
2023-03-19T01:12:03.875Z,24.60
2023-03-19T01:14:32.326Z,27.80
2023-03-19T01:16:59.574Z,26.47
2023-03-19T01:19:27.642Z,23.90
2023-03-19T01:21:54.687Z,28.37
2023-03-19T01:24:21.893Z,29.40
2023-03-19T01:26:48.781Z,25.57
2023-03-19T01:29:15.776Z,30.33
2023-03-19T01:31:42.689Z,31.97
2023-03-19T01:34:09.855Z,25.97
2023-03-19T01:36:36.869Z,30.13
2023-03-19T01:39:04.440Z,25.17
2023-03-19T01:41:31.495Z,26.87
2023-03-19T01:43:59.267Z,28.50
2023-03-19T01:46:37.578Z,26.90
2023-03-19T01:49:09.312Z,27.60
2023-03-19T01:51:41.809Z,26.73
2023-03-19T01:54:15.040Z,28.60
2023-03-19T01:56:43.806Z,23.63
2023-03-19T01:59:40.772Z,25.33
2023-03-19T02:02:17.989Z,32.23
2023-03-19T02:04:49.644Z,23.63
2023-03-19T02:07:17.604Z,23.20
2023-03-19T02:09:45.156Z,25.90
2023-03-19T02:12:13.377Z,26.70
2023-03-19T02:14:40.357Z,28.87
2023-03-19T02:17:08.916Z,27.00
2023-03-19T02:19:54.441Z,25.40
2023-03-19T02:22:27.304Z,32.33
2023-03-19T02:25:03.347Z,27.20
2023-03-19T02:27:31.085Z,26.03
2023-03-19T02:29:58.092Z,25.60
2023-03-19T02:32:25.115Z,24.33
2023-03-19T02:34:52.042Z,29.03
2023-03-19T02:37:27.956Z,29.70
2023-03-19T02:40:11.641Z,31.33
2023-03-19T02:42:39.079Z,26.03
2023-03-19T02:45:07.662Z,26.83
2023-03-19T02:47:34.812Z,26.10
2023-03-19T02:50:01.730Z,26.93
2023-03-19T02:52:28.810Z,29.13
2023-03-19T02:54:55.801Z,31.80
2023-03-19T02:57:22.701Z,28.10
2023-03-19T02:59:49.731Z,26.50
2023-03-19T03:02:16.771Z,27.13
2023-03-19T03:04:44.460Z,25.90
2023-03-19T03:07:12.215Z,24.23
2023-03-19T03:09:39.278Z,27.23
2023-03-19T03:12:07.382Z,29.73
2023-03-19T03:14:35.355Z,27.00
2023-03-19T03:17:02.708Z,27.00
2023-03-19T03:19:29.665Z,25.80
2023-03-19T03:21:56.611Z,25.87
2023-03-19T03:24:24.420Z,24.20
2023-03-19T03:26:51.482Z,23.10
2023-03-19T03:29:18.559Z,22.57
2023-03-19T03:31:46.146Z,25.13
2023-03-19T03:34:13.260Z,26.47
2023-03-19T03:36:40.213Z,24.47
2023-03-19T03:39:07.180Z,21.33
2023-03-19T03:41:34.184Z,21.20
2023-03-19T03:44:01.793Z,25.83
2023-03-19T03:46:28.852Z,25.00
2023-03-19T03:48:55.912Z,22.47
2023-03-19T03:51:22.933Z,24.47
2023-03-19T03:53:50.017Z,22.50
2023-03-19T03:56:17.058Z,27.40
2023-03-19T03:58:44.067Z,26.60
2023-03-19T04:01:16.514Z,25.40
2023-03-19T04:03:44.818Z,26.60
2023-03-19T04:06:24.297Z,23.20
2023-03-19T04:08:51.969Z,23.40
2023-03-19T04:11:19.542Z,26.80
2023-03-19T04:13:47.007Z,30.07
2023-03-19T04:16:15.901Z,29.37
2023-03-19T04:18:43.166Z,29.13
2023-03-19T04:21:10.461Z,26.70
2023-03-19T04:23:37.412Z,22.20
2023-03-19T04:26:07.893Z,23.43
2023-03-19T04:28:35.571Z,20.90
2023-03-19T04:31:06.409Z,21.17
2023-03-19T04:33:35.813Z,23.30
2023-03-19T04:36:04.394Z,25.07
2023-03-19T04:38:32.213Z,30.33
2023-03-19T04:40:59.690Z,29.73
2023-03-19T04:43:27.611Z,22.63
2023-03-19T04:45:54.830Z,24.80
2023-03-19T04:48:22.303Z,26.63
2023-03-19T04:50:52.325Z,25.87
2023-03-19T04:53:23.741Z,21.03
2023-03-19T04:55:51.548Z,22.73
2023-03-19T04:58:19.387Z,25.30
2023-03-19T05:00:47.816Z,28.40
2023-03-19T05:03:16.187Z,26.50
2023-03-19T05:05:43.356Z,24.90
2023-03-19T05:08:10.489Z,25.87
2023-03-19T05:10:38.251Z,29.13
2023-03-19T05:13:07.072Z,26.80
2023-03-19T05:15:34.310Z,27.27
2023-03-19T05:18:01.903Z,28.07
2023-03-19T05:20:29.095Z,29.40
2023-03-19T05:22:56.000Z,26.30
2023-03-19T05:25:22.996Z,24.80
2023-03-19T05:27:50.550Z,28.27
2023-03-19T05:30:18.696Z,29.27
2023-03-19T05:32:47.476Z,26.57
2023-03-19T05:35:14.664Z,31.77
2023-03-19T05:37:41.976Z,37.50
2023-03-19T05:40:10.531Z,29.30
2023-03-19T05:42:38.095Z,32.60
2023-03-19T05:45:05.890Z,29.70
2023-03-19T05:47:32.911Z,29.33
2023-03-19T05:49:59.910Z,30.30
2023-03-19T05:52:27.189Z,33.20
2023-03-19T05:54:54.148Z,30.47
2023-03-19T05:57:21.447Z,31.23
2023-03-19T05:59:48.559Z,28.10
2023-03-19T06:02:16.134Z,29.80
2023-03-19T06:04:43.220Z,30.57
2023-03-19T06:07:10.449Z,33.57
2023-03-19T06:09:37.455Z,33.57
2023-03-19T06:12:04.996Z,35.60
2023-03-19T06:14:32.045Z,37.30
2023-03-19T06:16:59.029Z,32.37
2023-03-19T06:19:26.516Z,35.90
2023-03-19T06:21:53.540Z,27.07
2023-03-19T06:24:20.568Z,32.07
2023-03-19T06:26:47.595Z,26.70
2023-03-19T06:29:14.626Z,25.10
2023-03-19T06:31:41.940Z,26.47
2023-03-19T06:34:09.123Z,25.27
2023-03-19T06:36:36.158Z,28.30
2023-03-19T06:39:03.505Z,29.30
2023-03-19T06:41:31.051Z,27.07
2023-03-19T06:43:58.049Z,33.47
2023-03-19T06:46:25.100Z,31.67
2023-03-19T06:48:52.131Z,29.30
2023-03-19T06:51:19.070Z,28.77
2023-03-19T06:53:46.133Z,28.27
2023-03-19T06:56:13.302Z,26.07
2023-03-19T06:58:40.604Z,27.60
2023-03-19T07:01:08.055Z,28.27
2023-03-19T07:03:35.093Z,26.80
2023-03-19T07:06:02.267Z,30.30
2023-03-19T07:08:30.060Z,26.20
2023-03-19T07:11:04.194Z,26.50
2023-03-19T07:13:32.220Z,22.90
2023-03-19T07:16:00.769Z,22.40
2023-03-19T07:18:27.823Z,24.87
2023-03-19T07:20:54.828Z,24.77
2023-03-19T07:23:22.287Z,26.90
2023-03-19T07:25:49.470Z,31.47
2023-03-19T07:28:16.698Z,25.13
2023-03-19T07:30:43.836Z,25.87
2023-03-19T07:33:11.319Z,24.77
2023-03-19T07:35:38.532Z,23.00
2023-03-19T07:38:05.782Z,23.70
2023-03-19T07:40:33.039Z,23.17
2023-03-19T07:43:00.312Z,25.50
2023-03-19T07:45:27.408Z,24.47
2023-03-19T07:47:54.408Z,22.27
2023-03-19T07:50:21.889Z,24.17
2023-03-19T07:52:51.810Z,22.70
2023-03-19T07:55:18.899Z,21.23
2023-03-19T07:57:45.950Z,20.70
2023-03-19T08:00:13.774Z,22.30
2023-03-19T08:02:42.971Z,18.70
2023-03-19T08:05:11.122Z,23.50
2023-03-19T08:07:38.766Z,22.87
2023-03-19T08:10:07.536Z,21.17
2023-03-19T08:12:41.260Z,22.60
2023-03-19T08:15:11.271Z,20.20
2023-03-19T08:17:39.411Z,21.73
2023-03-19T08:20:19.175Z,19.63
2023-03-19T08:22:51.417Z,20.27
2023-03-19T08:25:18.886Z,21.97
2023-03-19T08:27:46.055Z,20.27
2023-03-19T08:30:14.115Z,18.93
2023-03-19T08:32:41.212Z,23.17
2023-03-19T08:35:09.009Z,19.30
2023-03-19T08:37:36.101Z,19.93
2023-03-19T08:40:04.888Z,19.87
2023-03-19T08:42:31.983Z,23.90
2023-03-19T08:44:58.976Z,19.83
2023-03-19T08:47:26.454Z,21.67
2023-03-19T08:49:53.715Z,20.63
2023-03-19T08:52:20.926Z,20.70
2023-03-19T08:54:48.048Z,19.40
2023-03-19T08:57:15.101Z,20.93
2023-03-19T08:59:42.191Z,21.67
2023-03-19T09:02:12.531Z,20.27
2023-03-19T09:04:44.280Z,22.13
2023-03-19T09:07:16.935Z,20.80
2023-03-19T09:09:45.323Z,21.20
2023-03-19T09:12:17.017Z,20.10
2023-03-19T09:14:44.790Z,21.27
2023-03-19T09:17:13.622Z,23.13
2023-03-19T09:19:41.963Z,20.07
2023-03-19T09:22:09.204Z,21.17
2023-03-19T09:24:38.760Z,22.20
2023-03-19T09:27:07.286Z,22.80
2023-03-19T09:29:34.518Z,20.80
2023-03-19T09:32:01.684Z,19.10
2023-03-19T09:34:28.796Z,21.87
2023-03-19T09:36:56.000Z,18.67
2023-03-19T09:39:23.289Z,18.80
2023-03-19T09:42:15.348Z,20.53
2023-03-19T09:44:46.106Z,19.00
2023-03-19T09:47:33.655Z,19.10
2023-03-19T09:50:05.488Z,20.23
2023-03-19T09:52:54.539Z,19.77
2023-03-19T09:55:25.031Z,19.80
2023-03-19T09:57:58.888Z,21.87
2023-03-19T10:00:37.301Z,17.57
2023-03-19T10:03:31.832Z,17.83
2023-03-19T10:06:35.926Z,18.87
2023-03-19T10:09:05.797Z,19.30
2023-03-19T10:11:35.696Z,18.33
2023-03-19T10:14:34.732Z,22.07
2023-03-19T10:17:07.295Z,18.30
2023-03-19T10:19:54.707Z,16.87
2023-03-19T10:22:30.837Z,17.27
2023-03-19T10:24:58.787Z,16.77
2023-03-19T10:27:29.474Z,20.00
2023-03-19T10:29:57.246Z,16.83
2023-03-19T10:32:45.507Z,27.53
2023-03-19T10:35:25.276Z,18.97
2023-03-19T10:37:52.420Z,15.60
2023-03-19T10:40:44.675Z,18.43
2023-03-19T10:43:21.721Z,18.07
2023-03-19T10:45:49.622Z,16.70
2023-03-19T10:48:18.942Z,16.33
2023-03-19T10:50:52.611Z,15.53
2023-03-19T10:53:19.522Z,16.80
2023-03-19T10:56:02.304Z,16.87
2023-03-19T10:58:33.241Z,17.33
2023-03-19T11:01:13.550Z,15.17
2023-03-19T11:03:52.752Z,15.50
2023-03-19T11:06:32.630Z,16.77
2023-03-19T11:09:25.592Z,15.50
2023-03-19T11:12:25.661Z,16.37
2023-03-19T11:14:57.259Z,16.43
2023-03-19T11:17:38.606Z,16.93
2023-03-19T11:20:27.651Z,15.43
2023-03-19T11:23:02.450Z,16.80
2023-03-19T11:25:43.496Z,17.77
2023-03-19T11:28:24.856Z,15.43
2023-03-19T11:31:16.017Z,15.93
2023-03-19T11:34:08.497Z,16.97
2023-03-19T11:36:59.920Z,16.27
2023-03-19T11:39:46.061Z,16.47
2023-03-19T11:42:41.257Z,15.53
2023-03-19T11:45:34.171Z,17.23
2023-03-19T11:48:04.055Z,14.93
2023-03-19T11:50:43.408Z,14.60
2023-03-19T11:53:31.410Z,13.57
2023-03-19T11:56:11.496Z,20.50
2023-03-19T11:58:50.635Z,15.13
2023-03-19T12:01:29.799Z,14.67
2023-03-19T12:04:24.684Z,17.80
2023-03-19T12:07:22.000Z,15.20
2023-03-19T12:11:01.959Z,15.00
2023-03-19T12:13:53.573Z,12.80
2023-03-19T12:16:58.690Z,12.60
2023-03-19T12:19:48.886Z,14.40
2023-03-19T12:22:27.582Z,12.50
2023-03-19T12:25:18.608Z,14.13
2023-03-19T12:28:18.565Z,13.47
2023-03-19T12:31:01.563Z,13.57
2023-03-19T12:34:04.149Z,15.27
2023-03-19T12:36:39.344Z,17.03
2023-03-19T12:39:19.894Z,12.50
2023-03-19T12:41:48.627Z,14.23
2023-03-19T12:44:27.017Z,13.17
2023-03-19T12:47:22.565Z,13.67
2023-03-19T12:50:06.456Z,14.07
2023-03-19T12:52:43.346Z,13.50
2023-03-19T12:55:37.573Z,14.70
2023-03-19T12:58:34.549Z,15.60
2023-03-19T13:01:22.414Z,14.77
2023-03-19T13:04:06.631Z,24.40
2023-03-19T13:06:37.260Z,16.03
2023-03-19T13:09:42.830Z,15.17
2023-03-19T13:12:20.977Z,14.17
2023-03-19T13:15:02.120Z,16.60
2023-03-19T13:17:34.864Z,17.90
2023-03-19T13:20:14.670Z,18.87
2023-03-19T13:22:57.461Z,18.83
2023-03-19T13:25:33.631Z,17.20
2023-03-19T13:28:00.707Z,17.23
2023-03-19T13:30:27.819Z,20.67
2023-03-19T13:33:08.117Z,19.50
2023-03-19T13:35:51.055Z,17.57
2023-03-19T13:38:22.768Z,18.00
2023-03-19T13:40:49.790Z,18.60
2023-03-19T13:43:30.670Z,19.43
2023-03-19T13:46:06.087Z,20.73
2023-03-19T13:48:33.447Z,21.13
2023-03-19T13:51:02.208Z,21.27
2023-03-19T13:53:34.801Z,21.07
2023-03-19T13:56:15.753Z,18.70
2023-03-19T13:59:16.321Z,20.37
2023-03-19T14:01:47.816Z,21.90
2023-03-19T14:04:36.811Z,18.90
2023-03-19T14:07:15.240Z,18.20
2023-03-19T14:09:57.954Z,21.33
2023-03-19T14:12:34.278Z,19.30
2023-03-19T14:15:10.082Z,18.77
2023-03-19T14:17:38.766Z,17.20
2023-03-19T14:20:12.805Z,17.50
2023-03-19T14:22:56.860Z,19.37
2023-03-19T14:25:28.122Z,17.00
2023-03-19T14:28:01.038Z,18.93
2023-03-19T14:30:40.864Z,17.40
2023-03-19T14:33:51.639Z,20.90
2023-03-19T14:36:22.489Z,17.60
2023-03-19T14:39:08.787Z,17.23
2023-03-19T14:41:44.485Z,16.67
2023-03-19T14:44:56.745Z,18.20
2023-03-19T14:47:38.889Z,21.53
2023-03-19T14:50:30.039Z,17.13
2023-03-19T14:53:35.750Z,17.97
2023-03-19T14:56:31.314Z,18.80
2023-03-19T14:59:03.942Z,15.60
2023-03-19T15:01:34.787Z,18.53
2023-03-19T15:04:09.483Z,18.03
2023-03-19T15:06:43.193Z,16.40
2023-03-19T15:09:32.602Z,17.43
2023-03-19T15:12:38.451Z,17.57
2023-03-19T15:15:39.167Z,19.50
2023-03-19T15:22:08.547Z,19.07
2023-03-19T15:31:49.420Z,15.73
2023-03-19T15:34:43.243Z,17.07
2023-03-19T15:37:22.072Z,19.37
2023-03-19T15:40:05.105Z,17.23
2023-03-19T15:42:38.053Z,19.70
2023-03-19T15:45:19.480Z,16.80
2023-03-19T15:48:18.094Z,18.27
2023-03-19T15:51:00.713Z,16.93
2023-03-19T15:53:33.651Z,22.70
2023-03-19T15:56:04.105Z,16.03
2023-03-19T15:58:38.559Z,14.70
2023-03-19T16:01:10.198Z,15.10
2023-03-19T16:03:50.642Z,17.33
2023-03-19T16:06:27.080Z,14.10
2023-03-19T16:09:08.512Z,15.20
2023-03-19T16:11:37.279Z,15.80
2023-03-19T16:14:19.284Z,14.37
2023-03-19T16:16:48.639Z,14.47
2023-03-19T16:19:52.591Z,14.73
2023-03-19T16:22:28.791Z,13.20
2023-03-19T16:24:56.552Z,13.57
2023-03-19T16:27:38.162Z,13.50
2023-03-19T16:30:26.781Z,13.27
2023-03-19T16:33:02.729Z,13.40
2023-03-19T16:35:33.566Z,12.47
2023-03-19T16:38:24.116Z,12.03
2023-03-19T16:41:33.977Z,14.23
2023-03-19T16:44:17.734Z,13.90
2023-03-19T16:46:45.223Z,14.87
2023-03-19T16:49:12.259Z,14.50
2023-03-19T16:51:40.283Z,11.60
2023-03-19T16:54:12.485Z,13.80
2023-03-19T16:56:39.656Z,18.23
2023-03-19T16:59:06.688Z,13.63
2023-03-19T17:01:33.905Z,13.27
2023-03-19T17:04:01.795Z,12.87
2023-03-19T17:06:31.894Z,13.13
2023-03-19T17:08:58.844Z,13.30
2023-03-19T17:11:30.379Z,13.13
2023-03-19T17:13:59.776Z,12.90
2023-03-19T17:16:28.461Z,16.53
2023-03-19T17:18:56.684Z,13.80
2023-03-19T17:21:28.037Z,12.27
2023-03-19T17:23:55.809Z,15.73
2023-03-19T17:26:29.008Z,13.70
2023-03-19T17:28:57.069Z,14.17
2023-03-19T17:31:31.780Z,14.73
2023-03-19T17:34:12.966Z,13.10
2023-03-19T17:36:40.829Z,13.97
2023-03-19T17:39:11.156Z,17.73
2023-03-19T17:41:38.157Z,17.50
2023-03-19T17:44:06.729Z,22.60
2023-03-19T17:46:40.044Z,19.03
2023-03-19T17:49:15.575Z,17.00
2023-03-19T17:51:42.689Z,19.37
2023-03-19T17:54:13.270Z,21.33
2023-03-19T17:56:43.476Z,25.43
2023-03-19T17:59:11.772Z,21.50
2023-03-19T18:01:43.786Z,18.73
2023-03-19T18:04:16.664Z,19.67
2023-03-19T18:06:49.570Z,22.47
2023-03-19T18:09:24.246Z,24.73
2023-03-19T18:11:52.195Z,26.33
2023-03-19T18:14:19.843Z,25.20
2023-03-19T18:16:47.539Z,24.57
2023-03-19T18:19:36.977Z,24.13
2023-03-19T18:22:14.787Z,23.80
2023-03-19T18:24:42.612Z,22.20
2023-03-19T18:27:09.971Z,20.27
2023-03-19T18:29:37.095Z,19.67
2023-03-19T18:32:15.692Z,20.00
2023-03-19T18:34:42.746Z,23.47
2023-03-19T18:37:16.826Z,19.27
2023-03-19T18:39:44.064Z,21.57
2023-03-19T18:42:14.376Z,23.30
2023-03-19T18:44:42.547Z,21.20
2023-03-19T18:47:15.892Z,18.87
2023-03-19T18:49:44.449Z,18.70
2023-03-19T18:52:19.470Z,18.43
2023-03-19T18:54:46.921Z,19.53
2023-03-19T18:57:15.030Z,21.40
2023-03-19T18:59:42.682Z,20.27
2023-03-19T19:02:37.507Z,20.20
2023-03-19T19:05:05.022Z,22.53
2023-03-19T19:07:32.201Z,22.10
2023-03-19T19:09:59.201Z,19.00
2023-03-19T19:12:28.957Z,22.27
2023-03-19T19:14:59.255Z,20.23
2023-03-19T19:17:30.258Z,22.13
2023-03-19T19:19:57.228Z,20.23
2023-03-19T19:22:24.328Z,17.27
2023-03-19T19:24:51.484Z,18.07
2023-03-19T19:27:23.110Z,19.00
2023-03-19T19:29:50.864Z,17.50
2023-03-19T19:32:29.025Z,20.13
2023-03-19T19:34:56.148Z,20.00
2023-03-19T19:37:24.402Z,20.93
2023-03-19T19:39:52.582Z,19.77
2023-03-19T19:42:23.261Z,18.77
2023-03-19T19:45:01.259Z,18.73
2023-03-19T19:47:29.878Z,22.10
2023-03-19T19:50:01.248Z,26.80
2023-03-19T19:52:29.335Z,21.30
2023-03-19T19:54:57.574Z,20.63
2023-03-19T19:57:26.238Z,19.23
2023-03-19T19:59:58.212Z,19.57
2023-03-19T20:02:30.434Z,18.63
2023-03-19T20:04:59.117Z,18.10
2023-03-19T20:07:27.496Z,19.00
2023-03-19T20:09:58.012Z,22.20
2023-03-19T20:12:35.165Z,19.97
2023-03-19T20:15:02.501Z,18.97
2023-03-19T20:17:30.074Z,25.00
2023-03-19T20:19:59.761Z,22.30
2023-03-19T20:22:27.484Z,18.90
2023-03-19T20:24:54.843Z,21.30
2023-03-19T20:27:31.178Z,20.10
2023-03-19T20:29:58.345Z,20.07
2023-03-19T20:32:37.921Z,19.00
2023-03-19T20:35:16.371Z,21.77
2023-03-19T20:37:45.777Z,23.07
2023-03-19T20:40:14.501Z,22.70
2023-03-19T20:42:44.029Z,17.50
2023-03-19T20:49:31.992Z,18.57
2023-03-19T20:52:00.425Z,17.30
2023-03-19T20:54:31.365Z,18.03
2023-03-19T20:57:00.012Z,24.73
2023-03-19T20:59:29.129Z,16.87
2023-03-19T21:01:56.615Z,18.50
2023-03-19T21:04:24.163Z,19.43
2023-03-19T21:06:53.879Z,18.67
2023-03-19T21:09:22.371Z,19.83
2023-03-19T21:11:49.579Z,20.20
2023-03-19T21:14:16.608Z,17.77
2023-03-19T21:16:44.042Z,19.73
2023-03-19T21:19:12.814Z,19.20
2023-03-19T21:21:41.222Z,20.47
2023-03-19T21:24:19.946Z,21.87
2023-03-19T21:26:47.489Z,24.10
2023-03-19T21:29:31.036Z,22.33
2023-03-19T21:31:58.330Z,24.37
2023-03-19T21:34:25.461Z,24.90
2023-03-19T21:36:52.656Z,24.27
2023-03-19T21:39:19.660Z,21.60
2023-03-19T21:41:47.352Z,23.73
2023-03-19T21:44:20.043Z,20.90
2023-03-19T21:46:49.001Z,21.83
2023-03-19T21:49:16.705Z,21.67
2023-03-19T21:51:47.353Z,22.40
2023-03-19T21:54:15.873Z,23.70
2023-03-19T21:56:46.011Z,24.07
2023-03-19T21:59:28.902Z,23.43
2023-03-19T22:01:56.674Z,22.47
2023-03-19T22:04:23.826Z,21.93
2023-03-19T22:06:50.984Z,22.17
2023-03-19T22:09:17.976Z,24.20
2023-03-19T22:11:46.462Z,24.63
2023-03-19T22:14:27.124Z,26.67
2023-03-19T22:16:56.566Z,23.40
2023-03-19T22:19:24.049Z,22.90
2023-03-19T22:21:51.106Z,23.10
2023-03-19T22:24:18.100Z,23.60
2023-03-19T22:26:47.344Z,24.87
2023-03-19T22:29:20.504Z,24.40
2023-03-19T22:31:52.594Z,23.27
2023-03-19T22:34:24.397Z,26.07
2023-03-19T22:36:53.272Z,25.00
2023-03-19T22:39:20.506Z,24.30
2023-03-19T22:41:49.591Z,23.00
2023-03-19T22:44:31.699Z,23.77
2023-03-19T22:47:01.082Z,27.60
2023-03-19T22:49:30.108Z,22.80
2023-03-19T22:51:58.111Z,25.10
2023-03-19T22:54:26.231Z,22.10
2023-03-19T22:56:53.274Z,22.73
2023-03-19T22:59:20.495Z,22.57
2023-03-19T23:01:48.766Z,24.03
2023-03-19T23:04:22.620Z,22.93
2023-03-19T23:06:52.346Z,24.10
2023-03-19T23:09:27.744Z,23.10
2023-03-19T23:11:55.418Z,21.40
2023-03-19T23:14:31.363Z,22.83
2023-03-19T23:17:06.844Z,21.37
2023-03-19T23:19:36.635Z,22.07
2023-03-19T23:22:07.060Z,21.50
2023-03-19T23:24:35.065Z,22.10
2023-03-19T23:27:03.253Z,22.50
2023-03-19T23:29:42.041Z,21.13
2023-03-19T23:32:11.726Z,21.53
2023-03-19T23:34:54.143Z,23.50
2023-03-19T23:37:24.572Z,22.67
2023-03-19T23:39:52.138Z,22.37
2023-03-19T23:42:30.379Z,22.27
2023-03-19T23:45:02.094Z,21.53
2023-03-19T23:47:30.930Z,19.40
2023-03-19T23:49:58.071Z,23.10
2023-03-19T23:52:25.109Z,20.43
2023-03-19T23:54:52.750Z,21.27
2023-03-19T23:57:21.651Z,21.07
2023-03-19T23:59:52.465Z,20.53
